Time;durP1;ratioP1;P1;durP2;ratioP2;P2;SDS_P1;SDS_P2;PMS_P1;PMS_P2;Temp;Humidity;BMP_temperature;BMP_pressure;BME280_temperature;BME280_humidity;BME280_pressure;Samples;Min_cycle;Max_cycle;Signal;HPM_P1;HPM_P2
2023/06/09 00:00:18;;;;;;;15.23;4.45;;;13.90;99.90;;;;;;5031513;28;20037;-78
2023/06/09 00:02:50;;;;;;;10.38;4.18;;;13.90;99.90;;;;;;5031354;28;20528;-78
2023/06/09 00:05:20;;;;;;;10.73;3.60;;;13.90;99.90;;;;;;5048131;28;20047;-78
2023/06/09 00:07:47;;;;;;;11.43;4.15;;;13.90;99.90;;;;;;5048340;28;20605;-78
2023/06/09 00:10:14;;;;;;;13.73;4.43;;;13.90;99.90;;;;;;5047967;28;20044;-79
2023/06/09 00:12:40;;;;;;;10.95;3.92;;;13.80;99.90;;;;;;5047762;28;20033;-79
2023/06/09 00:15:09;;;;;;;13.27;4.25;;;13.80;99.90;;;;;;5048394;28;20554;-78
2023/06/09 00:17:38;;;;;;;9.48;4.05;;;13.80;99.90;;;;;;5031230;28;20045;-79
2023/06/09 00:20:04;;;;;;;10.25;4.10;;;13.80;99.90;;;;;;5044312;28;20468;-78
2023/06/09 00:22:31;;;;;;;9.20;4.28;;;13.80;99.90;;;;;;5047427;28;20129;-79
2023/06/09 00:24:57;;;;;;;15.38;5.10;;;13.80;99.90;;;;;;5047730;28;20136;-78
2023/06/09 00:27:22;;;;;;;9.18;4.40;;;13.70;99.90;;;;;;5047916;28;20548;-79
2023/06/09 00:29:48;;;;;;;9.15;4.43;;;13.70;99.90;;;;;;5047919;28;20136;-78
2023/06/09 00:32:13;;;;;;;11.95;4.40;;;13.70;99.90;;;;;;5047454;28;20030;-79
2023/06/09 00:34:39;;;;;;;10.07;4.63;;;13.70;99.90;;;;;;5047673;28;20040;-79
2023/06/09 00:37:05;;;;;;;12.32;4.63;;;13.70;99.90;;;;;;5024698;28;20038;-79
2023/06/09 00:39:31;;;;;;;7.60;4.03;;;13.70;99.90;;;;;;5030697;28;20029;-78
2023/06/09 00:41:56;;;;;;;11.98;5.30;;;13.60;99.90;;;;;;5046553;28;20045;-79
2023/06/09 00:44:22;;;;;;;14.00;4.70;;;13.60;99.90;;;;;;5030921;28;20044;-78
2023/06/09 00:46:48;;;;;;;9.93;3.97;;;13.60;99.90;;;;;;5030726;28;20053;-78
2023/06/09 00:49:13;;;;;;;9.18;4.60;;;13.60;99.90;;;;;;5030691;28;20120;-78
2023/06/09 00:51:39;;;;;;;12.60;4.70;;;13.60;99.90;;;;;;5046921;28;20046;-78
2023/06/09 00:54:05;;;;;;;14.27;5.13;;;13.60;99.90;;;;;;5030543;28;20095;-79
2023/06/09 00:56:33;;;;;;;8.88;4.93;;;13.50;99.90;;;;;;5030613;28;20029;-79
2023/06/09 00:58:59;;;;;;;11.73;5.00;;;13.50;99.90;;;;;;5047129;28;20041;-78
2023/06/09 01:01:24;;;;;;;11.30;5.03;;;13.50;99.90;;;;;;5046632;28;20088;-79
2023/06/09 01:03:50;;;;;;;9.98;5.13;;;13.50;99.90;;;;;;5047028;28;20562;-78
2023/06/09 01:06:26;;;;;;;12.63;5.05;;;13.50;99.90;;;;;;5046851;28;20084;-78
2023/06/09 01:09:04;;;;;;;14.05;5.43;;;13.50;99.90;;;;;;5030256;28;20037;-78
2023/06/09 01:11:38;;;;;;;16.50;6.38;;;13.50;99.90;;;;;;5046607;28;20041;-78
2023/06/09 01:14:17;;;;;;;14.50;5.88;;;13.50;99.90;;;;;;5047091;28;20052;-78
2023/06/09 01:16:52;;;;;;;11.57;5.47;;;13.40;99.90;;;;;;5047179;28;20042;-78
2023/06/09 01:19:31;;;;;;;12.68;5.82;;;13.40;99.90;;;;;;5030092;28;20041;-78
2023/06/09 01:22:02;;;;;;;12.35;5.22;;;13.40;99.90;;;;;;5046497;28;20076;-79
2023/06/09 01:24:53;;;;;;;9.80;5.18;;;13.40;99.90;;;;;;5046909;28;21013;-78
2023/06/09 01:27:21;;;;;;;14.85;6.10;;;13.40;99.90;;;;;;5029617;28;20129;-78
2023/06/09 01:29:51;;;;;;;11.10;5.72;;;13.40;99.90;;;;;;5030101;28;20516;-78
2023/06/09 01:32:17;;;;;;;14.23;5.85;;;13.40;99.90;;;;;;5029517;28;20037;-78
2023/06/09 01:34:43;;;;;;;10.73;5.60;;;13.30;99.90;;;;;;5030036;28;20120;-79
2023/06/09 01:37:10;;;;;;;9.85;5.20;;;13.30;99.90;;;;;;5046757;28;20033;-77
2023/06/09 01:39:36;;;;;;;16.40;5.60;;;13.30;99.90;;;;;;5029912;28;20080;-78
2023/06/09 01:42:01;;;;;;;11.73;5.90;;;13.20;99.90;;;;;;5029770;28;20037;-78
2023/06/09 01:44:27;;;;;;;15.90;5.72;;;13.20;99.90;;;;;;5029812;28;20106;-78
2023/06/09 01:46:52;;;;;;;12.18;6.07;;;13.20;99.90;;;;;;5046365;28;20037;-79
2023/06/09 01:49:24;;;;;;;11.95;5.25;;;13.20;99.90;;;;;;5029769;28;20501;-78
2023/06/09 01:51:52;;;;;;;11.88;5.47;;;13.10;99.90;;;;;;5029700;28;20041;-79
2023/06/09 01:54:58;;;;;;;11.55;5.65;;;13.10;99.90;;;;;;5029667;28;20099;-78
2023/06/09 01:57:35;;;;;;;13.77;5.60;;;13.00;99.90;;;;;;5046508;28;20564;-78
2023/06/09 02:00:04;;;;;;;16.75;6.18;;;13.00;99.90;;;;;;5025933;28;20408;-79
2023/06/09 02:02:33;;;;;;;11.23;4.93;;;13.00;99.90;;;;;;5012897;28;20095;-78
2023/06/09 02:05:03;;;;;;;12.38;5.63;;;13.00;99.90;;;;;;5046128;28;20038;-79
2023/06/09 02:07:30;;;;;;;14.07;5.22;;;12.90;99.90;;;;;;5029987;28;20069;-78
2023/06/09 02:09:56;;;;;;;13.77;5.50;;;12.90;99.90;;;;;;5046508;28;20033;-79
2023/06/09 02:12:22;;;;;;;16.23;5.50;;;12.90;99.90;;;;;;5046111;28;20056;-79
2023/06/09 02:14:47;;;;;;;15.55;5.18;;;12.90;99.90;;;;;;5029977;28;20079;-79
2023/06/09 02:17:13;;;;;;;13.32;5.07;;;12.80;99.90;;;;;;5013066;28;20120;-78
2023/06/09 02:19:39;;;;;;;13.35;5.60;;;12.80;99.90;;;;;;5029526;28;20056;-78
2023/06/09 02:22:08;;;;;;;11.35;5.22;;;12.80;99.90;;;;;;5029132;28;20500;-78
2023/06/09 02:24:34;;;;;;;15.02;5.68;;;12.80;99.90;;;;;;5021503;28;20176;-78
2023/06/09 02:27:02;;;;;;;15.23;5.70;;;12.80;99.90;;;;;;5031033;28;20048;-78
2023/06/09 02:29:28;;;;;;;13.75;5.05;;;12.80;99.90;;;;;;5029301;28;20038;-78
2023/06/09 02:31:55;;;;;;;14.98;5.60;;;12.80;99.90;;;;;;5045522;28;20088;-78
2023/06/09 02:34:25;;;;;;;11.55;5.43;;;12.80;99.90;;;;;;5029568;28;20033;-78
2023/06/09 02:36:54;;;;;;;16.85;5.53;;;12.80;99.90;;;;;;5046236;28;20047;-78
2023/06/09 02:39:20;;;;;;;13.88;5.30;;;12.80;99.90;;;;;;5046052;28;20080;-79
2023/06/09 02:41:46;;;;;;;15.93;5.65;;;12.80;99.90;;;;;;5028984;28;20041;-78
2023/06/09 02:44:12;;;;;;;12.32;5.65;;;12.80;99.90;;;;;;5029240;28;20068;-78
2023/06/09 02:46:40;;;;;;;12.13;6.15;;;12.80;99.90;;;;;;5029207;28;20076;-77
2023/06/09 02:49:06;;;;;;;17.77;5.47;;;12.80;99.90;;;;;;5046048;28;20439;-78
2023/06/09 02:51:32;;;;;;;16.90;5.38;;;12.80;99.90;;;;;;5029114;28;20077;-78
2023/06/09 02:53:57;;;;;;;13.02;5.15;;;12.70;99.90;;;;;;5045712;28;20073;-78
2023/06/09 02:56:23;;;;;;;12.80;5.68;;;12.80;99.90;;;;;;5037298;28;20517;-79
2023/06/09 02:58:50;;;;;;;13.77;5.53;;;12.80;99.90;;;;;;5029611;28;20489;-79
2023/06/09 03:01:17;;;;;;;12.55;4.75;;;12.80;99.90;;;;;;5028880;28;20045;-79
2023/06/09 03:03:47;;;;;;;13.43;6.40;;;12.80;99.90;;;;;;5029520;28;20037;-78
2023/06/09 03:06:13;;;;;;;11.43;5.57;;;12.80;99.90;;;;;;5031175;28;20078;-78
2023/06/09 03:08:40;;;;;;;14.20;5.55;;;12.80;99.90;;;;;;5033008;28;20382;-79
2023/06/09 03:11:05;;;;;;;15.55;5.50;;;12.70;99.90;;;;;;5049485;28;20525;-79
2023/06/09 03:13:31;;;;;;;14.23;5.43;;;12.70;99.90;;;;;;5032956;28;20041;-79
2023/06/09 03:15:57;;;;;;;13.82;5.97;;;12.70;99.90;;;;;;5033155;28;20038;-79
2023/06/09 03:18:22;;;;;;;17.17;6.00;;;12.70;99.90;;;;;;5033103;28;20125;-79
2023/06/09 03:20:48;;;;;;;15.00;6.40;;;12.70;99.90;;;;;;5049179;28;20033;-79
2023/06/09 03:23:14;;;;;;;16.58;6.65;;;12.70;99.90;;;;;;5049251;28;20042;-79
2023/06/09 03:25:40;;;;;;;13.10;6.38;;;12.70;99.90;;;;;;5049255;28;20061;-79
2023/06/09 03:28:06;;;;;;;13.77;6.30;;;12.70;99.90;;;;;;5049249;28;20127;-77
2023/06/09 03:30:31;;;;;;;17.45;6.63;;;12.60;99.90;;;;;;5032632;28;20094;-78
2023/06/09 03:32:58;;;;;;;14.45;6.60;;;12.70;99.90;;;;;;5049058;28;20037;-79
2023/06/09 03:35:23;;;;;;;16.63;7.22;;;12.60;99.90;;;;;;5049051;28;20049;-79
2023/06/09 03:37:49;;;;;;;16.58;7.00;;;12.60;99.90;;;;;;5049082;28;20038;-78
2023/06/09 03:40:15;;;;;;;12.80;6.25;;;12.70;99.90;;;;;;5049124;28;20043;-79
2023/06/09 03:42:40;;;;;;;15.32;6.90;;;12.70;99.90;;;;;;5048889;28;20183;-79
2023/06/09 03:45:06;;;;;;;11.73;6.43;;;12.70;99.90;;;;;;5032243;28;20042;-80
2023/06/09 03:47:32;;;;;;;14.60;6.40;;;12.70;99.90;;;;;;5032343;28;20029;-79
2023/06/09 03:49:57;;;;;;;15.57;6.97;;;12.70;99.90;;;;;;5033048;28;20083;-80
2023/06/09 03:52:26;;;;;;;11.98;6.60;;;12.70;99.90;;;;;;5048791;28;20033;-79
2023/06/09 03:54:51;;;;;;;14.98;6.90;;;12.70;99.90;;;;;;5032711;28;20029;-79
2023/06/09 03:57:17;;;;;;;18.35;7.43;;;12.70;99.90;;;;;;5032324;28;20038;-79
2023/06/09 03:59:42;;;;;;;15.25;7.20;;;12.70;99.90;;;;;;5048925;28;20037;-79
2023/06/09 04:02:08;;;;;;;14.88;7.28;;;12.70;99.90;;;;;;5032103;28;20037;-79
2023/06/09 04:04:33;;;;;;;15.95;6.70;;;12.80;99.90;;;;;;5048752;28;20171;-79
2023/06/09 04:06:59;;;;;;;14.15;6.82;;;12.80;99.90;;;;;;5032587;28;20124;-79
2023/06/09 04:09:27;;;;;;;13.27;6.75;;;12.80;99.90;;;;;;5048839;28;20127;-79
2023/06/09 04:11:52;;;;;;;16.63;6.32;;;12.90;99.90;;;;;;5031927;28;20033;-79
2023/06/09 04:14:18;;;;;;;16.05;6.75;;;12.90;99.90;;;;;;5048898;28;20510;-78
2023/06/09 04:16:45;;;;;;;12.73;6.18;;;13.00;99.90;;;;;;5032031;28;20040;-79
2023/06/09 04:19:10;;;;;;;13.30;6.38;;;13.00;99.90;;;;;;5048564;28;20056;-79
2023/06/09 04:21:37;;;;;;;17.85;6.50;;;13.00;99.90;;;;;;5048408;28;20662;-80
2023/06/09 04:24:03;;;;;;;13.23;6.15;;;13.00;99.90;;;;;;5032057;28;20041;-79
2023/06/09 04:26:29;;;;;;;20.02;6.82;;;13.10;99.90;;;;;;5048514;28;20597;-79
2023/06/09 04:28:55;;;;;;;13.43;5.82;;;13.20;99.90;;;;;;5032080;28;20112;-79
2023/06/09 04:31:23;;;;;;;15.73;6.65;;;13.20;99.90;;;;;;5048410;28;20079;-79
2023/06/09 04:33:53;;;;;;;13.95;6.22;;;13.20;99.90;;;;;;5048694;28;20037;-80
2023/06/09 04:36:20;;;;;;;17.67;6.72;;;13.30;99.90;;;;;;5031496;28;20073;-79
2023/06/09 04:38:46;;;;;;;14.75;6.35;;;13.30;99.90;;;;;;5031605;28;20116;-79
2023/06/09 04:41:12;;;;;;;13.88;5.68;;;13.40;99.90;;;;;;5031423;28;20412;-79
2023/06/09 04:43:39;;;;;;;15.10;6.38;;;13.40;99.90;;;;;;5048083;28;20038;-80
2023/06/09 04:46:05;;;;;;;16.67;5.93;;;13.50;99.90;;;;;;5031381;28;20171;-79
2023/06/09 04:48:33;;;;;;;16.77;6.95;;;13.50;99.90;;;;;;5031014;28;20037;-78
2023/06/09 04:51:01;;;;;;;10.82;6.00;;;13.60;99.90;;;;;;5047657;28;20112;-79
2023/06/09 04:53:28;;;;;;;13.40;5.85;;;13.60;99.90;;;;;;5031214;28;20046;-78
2023/06/09 04:55:54;;;;;;;16.38;5.90;;;13.70;99.90;;;;;;5047590;28;20518;-79
2023/06/09 04:58:20;;;;;;;15.95;6.10;;;13.80;99.90;;;;;;5031103;28;20053;-79
2023/06/09 05:00:45;;;;;;;13.88;6.10;;;13.90;99.90;;;;;;5047289;28;20155;-79
2023/06/09 05:03:13;;;;;;;14.40;6.90;;;13.90;99.90;;;;;;5031750;28;20469;-79
2023/06/09 05:05:40;;;;;;;15.32;6.68;;;14.00;99.90;;;;;;5048095;28;20045;-79
2023/06/09 05:08:05;;;;;;;16.88;6.55;;;14.00;99.90;;;;;;5048347;28;20521;-79
2023/06/09 05:10:31;;;;;;;13.13;6.22;;;14.00;99.90;;;;;;5048099;28;20119;-79
2023/06/09 05:12:56;;;;;;;13.05;6.38;;;14.00;99.90;;;;;;5047540;28;20030;-80
2023/06/09 05:15:23;;;;;;;14.23;6.22;;;14.10;99.90;;;;;;5031739;28;20037;-80
2023/06/09 05:17:49;;;;;;;17.05;7.18;;;14.20;99.90;;;;;;5032041;28;20037;-78
2023/06/09 05:20:15;;;;;;;13.15;6.65;;;14.30;99.90;;;;;;5031217;28;20041;-79
2023/06/09 05:22:41;;;;;;;17.40;6.90;;;14.30;99.90;;;;;;5030899;28;20518;-79
2023/06/09 05:25:09;;;;;;;17.10;6.53;;;14.40;99.90;;;;;;5048018;28;20041;-81
2023/06/09 05:27:34;;;;;;;13.95;6.70;;;14.40;99.90;;;;;;5030912;28;20138;-80
2023/06/09 05:30:00;;;;;;;16.35;6.38;;;14.50;99.90;;;;;;5030797;28;20543;-78
2023/06/09 05:32:25;;;;;;;15.57;6.45;;;14.60;99.90;;;;;;5030242;28;20029;-79
2023/06/09 05:34:52;;;;;;;16.55;6.53;;;14.60;99.90;;;;;;5047367;28;20047;-79
2023/06/09 05:37:18;;;;;;;15.85;6.75;;;14.80;99.90;;;;;;5031061;28;20381;-79
2023/06/09 05:39:43;;;;;;;16.25;7.07;;;14.90;99.90;;;;;;5047372;28;20061;-79
2023/06/09 05:42:09;;;;;;;18.58;7.38;;;15.00;99.90;;;;;;5047092;28;20134;-79
2023/06/09 05:44:35;;;;;;;12.93;6.88;;;15.00;99.90;;;;;;5030682;28;20112;-79
2023/06/09 05:47:01;;;;;;;17.23;7.13;;;15.10;99.90;;;;;;5030402;28;20560;-79
2023/06/09 05:49:27;;;;;;;18.40;6.75;;;15.10;99.90;;;;;;5045669;28;20112;-79
2023/06/09 05:51:52;;;;;;;16.55;6.43;;;15.20;99.90;;;;;;5045663;28;20121;-79
2023/06/09 05:54:18;;;;;;;14.23;5.97;;;15.30;99.90;;;;;;5047374;28;20084;-77
2023/06/09 05:56:44;;;;;;;15.40;6.07;;;15.30;99.90;;;;;;5031339;28;20045;-78
2023/06/09 05:59:13;;;;;;;17.52;6.70;;;15.40;99.90;;;;;;5046575;28;20052;-78
2023/06/09 06:01:39;;;;;;;23.38;6.90;;;15.50;99.90;;;;;;5013384;28;20152;-80
2023/06/09 06:04:05;;;;;;;14.98;6.13;;;15.60;99.90;;;;;;5046914;28;20064;-78
2023/06/09 06:06:31;;;;;;;17.92;6.93;;;15.70;99.90;;;;;;5027144;28;20044;-80
2023/06/09 06:08:57;;;;;;;14.57;6.03;;;15.80;99.90;;;;;;5030375;28;20401;-79
2023/06/09 06:11:23;;;;;;;16.52;6.15;;;15.90;99.90;;;;;;5046172;28;20065;-78
2023/06/09 06:13:48;;;;;;;12.23;6.57;;;16.00;99.90;;;;;;5030176;28;20056;-77
2023/06/09 06:16:14;;;;;;;15.13;6.68;;;16.10;99.90;;;;;;5030150;28;20041;-79
2023/06/09 06:18:40;;;;;;;19.63;6.82;;;16.10;99.90;;;;;;5046554;28;20412;-77
2023/06/09 06:21:05;;;;;;;13.43;6.45;;;16.20;99.90;;;;;;5046368;28;20080;-79
2023/06/09 06:23:31;;;;;;;14.63;6.47;;;16.30;99.90;;;;;;5030902;28;20120;-78
2023/06/09 06:25:57;;;;;;;15.30;6.28;;;16.30;99.90;;;;;;5029542;28;20038;-79
2023/06/09 06:28:23;;;;;;;13.07;6.70;;;16.40;99.90;;;;;;5046627;28;20416;-80
2023/06/09 06:30:49;;;;;;;12.75;6.80;;;16.50;99.90;;;;;;5046321;28;20507;-79
2023/06/09 06:33:15;;;;;;;11.82;6.18;;;16.60;99.90;;;;;;5029831;28;20033;-79
2023/06/09 06:35:41;;;;;;;14.57;6.50;;;16.70;99.90;;;;;;5029846;28;20049;-79
2023/06/09 06:38:06;;;;;;;16.40;6.68;;;16.90;99.90;;;;;;5046522;28;20041;-79
2023/06/09 06:40:33;;;;;;;13.75;6.82;;;16.90;99.90;;;;;;5031370;28;20095;-78
2023/06/09 06:42:58;;;;;;;11.50;5.68;;;17.00;99.90;;;;;;5032722;28;20064;-79
2023/06/09 06:45:26;;;;;;;14.57;5.97;;;17.10;99.90;;;;;;5050225;28;20497;-78
2023/06/09 06:47:53;;;;;;;12.55;5.72;;;17.20;99.90;;;;;;5049260;28;20087;-79
2023/06/09 06:50:19;;;;;;;14.15;6.20;;;17.30;99.90;;;;;;5047841;28;20092;-78
2023/06/09 06:52:45;;;;;;;11.30;6.22;;;17.40;99.90;;;;;;5033307;28;20041;-78
2023/06/09 06:55:11;;;;;;;15.98;6.72;;;17.60;99.90;;;;;;5049877;28;20041;-78
2023/06/09 06:57:37;;;;;;;14.10;6.13;;;17.60;99.90;;;;;;5032832;28;20417;-79
2023/06/09 07:00:16;;;;;;;11.27;6.00;;;17.70;99.90;;;;;;5033894;28;20045;-77
2023/06/09 07:02:46;;;;;;;16.77;6.45;;;17.80;99.90;;;;;;5035037;28;20121;-76
2023/06/09 07:05:12;;;;;;;14.45;6.13;;;17.90;99.90;;;;;;5032863;28;20056;-77
2023/06/09 07:07:37;;;;;;;13.80;6.15;;;18.00;99.90;;;;;;5033189;28;20029;-78
2023/06/09 07:10:04;;;;;;;15.82;5.68;;;18.10;99.90;;;;;;5032763;28;20037;-78
2023/06/09 07:12:29;;;;;;;17.17;6.10;;;18.20;99.90;;;;;;5049198;28;20033;-78
2023/06/09 07:14:56;;;;;;;12.35;5.97;;;18.30;99.90;;;;;;5049467;28;20037;-78
2023/06/09 07:17:21;;;;;;;11.63;5.18;;;18.40;99.90;;;;;;5031214;28;20394;-78
2023/06/09 07:19:47;;;;;;;14.77;5.38;;;18.50;99.90;;;;;;5032422;28;20116;-79
2023/06/09 07:22:12;;;;;;;12.38;5.55;;;18.70;99.90;;;;;;5049100;28;20045;-79
2023/06/09 07:24:38;;;;;;;17.30;6.63;;;18.70;99.90;;;;;;5033240;28;20033;-77
2023/06/09 07:27:05;;;;;;;18.67;6.00;;;18.80;99.90;;;;;;5032580;28;20124;-79
2023/06/09 07:29:31;;;;;;;15.20;5.22;;;18.90;99.90;;;;;;5031092;28;20049;-79
2023/06/09 07:31:56;;;;;;;14.25;5.75;;;19.00;99.90;;;;;;5042615;28;20042;-78
2023/06/09 07:34:27;;;;;;;12.00;5.57;;;19.10;99.90;;;;;;5030993;28;20038;-79
2023/06/09 07:36:55;;;;;;;14.20;5.13;;;19.20;99.90;;;;;;5032135;28;20064;-79
2023/06/09 07:39:21;;;;;;;14.55;5.70;;;19.30;99.90;;;;;;5031033;28;20128;-78
2023/06/09 07:41:46;;;;;;;16.58;6.18;;;19.40;99.90;;;;;;5025697;28;20498;-78
2023/06/09 07:44:12;;;;;;;10.95;5.30;;;19.40;99.90;;;;;;5048616;28;20073;-78
2023/06/09 07:46:37;;;;;;;11.75;5.25;;;19.60;99.90;;;;;;5032254;28;20044;-78
2023/06/09 07:49:03;;;;;;;14.95;5.63;;;19.70;99.90;;;;;;5032500;28;20416;-77
2023/06/09 07:51:29;;;;;;;15.57;5.78;;;19.70;99.90;;;;;;5031573;28;20029;-77
2023/06/09 07:53:55;;;;;;;11.20;5.60;;;19.80;99.90;;;;;;5032085;28;20511;-77
2023/06/09 07:56:21;;;;;;;12.20;5.28;;;19.90;99.90;;;;;;5048752;28;20045;-78
2023/06/09 07:58:49;;;;;;;10.93;5.07;;;20.10;99.90;;;;;;5031894;28;20483;-77
2023/06/09 08:01:15;;;;;;;12.27;5.43;;;20.20;99.90;;;;;;5048468;28;20458;-78
2023/06/09 08:03:41;;;;;;;11.38;5.28;;;20.30;99.90;;;;;;5048779;28;20030;-78
2023/06/09 08:06:08;;;;;;;19.75;6.07;;;20.40;99.90;;;;;;5048682;28;20038;-78
2023/06/09 08:08:34;;;;;;;12.18;5.28;;;20.50;99.90;;;;;;5031694;28;20049;-78
2023/06/09 08:11:00;;;;;;;20.17;6.07;;;20.60;99.90;;;;;;5031642;28;20048;-78
2023/06/09 08:13:27;;;;;;;15.00;5.22;;;20.70;99.90;;;;;;5031827;28;20041;-77
2023/06/09 08:15:52;;;;;;;10.57;4.63;;;20.90;99.90;;;;;;5031745;28;20053;-78
2023/06/09 08:18:18;;;;;;;10.55;5.22;;;21.00;99.90;;;;;;5033038;28;20037;-78
2023/06/09 08:20:43;;;;;;;12.80;5.07;;;21.00;99.90;;;;;;5047796;28;20037;-78
2023/06/09 08:23:09;;;;;;;13.82;5.68;;;21.10;99.90;;;;;;5031581;28;20053;-78
2023/06/09 08:25:35;;;;;;;14.38;5.80;;;21.30;99.90;;;;;;5031492;28;20064;-78
2023/06/09 08:28:01;;;;;;;13.30;4.72;;;21.30;99.90;;;;;;5048172;28;20065;-77
2023/06/09 08:30:27;;;;;;;9.30;4.85;;;21.40;99.90;;;;;;5031473;28;20044;-78
2023/06/09 08:32:52;;;;;;;8.15;4.63;;;21.40;99.90;;;;;;5048072;28;20045;-78
2023/06/09 08:35:18;;;;;;;13.57;4.93;;;21.50;99.90;;;;;;5047682;28;20073;-79
2023/06/09 08:37:44;;;;;;;10.63;4.55;;;21.50;99.90;;;;;;5031266;28;20649;-78
2023/06/09 08:40:10;;;;;;;20.75;5.80;;;21.60;99.90;;;;;;5031400;28;20045;-77
2023/06/09 08:42:36;;;;;;;13.48;5.22;;;21.70;99.90;;;;;;5031047;28;20033;-77
2023/06/09 08:45:04;;;;;;;11.85;4.75;;;21.80;99.90;;;;;;5031152;28;20060;-79
2023/06/09 08:47:32;;;;;;;11.52;4.53;;;21.90;99.90;;;;;;5031052;28;20508;-76
2023/06/09 08:49:59;;;;;;;8.80;4.63;;;21.90;99.90;;;;;;5031182;28;20033;-77
2023/06/09 08:52:25;;;;;;;9.05;5.07;;;22.00;99.90;;;;;;5030552;28;20052;-78
2023/06/09 08:54:52;;;;;;;10.52;4.95;;;22.10;99.90;;;;;;5028357;28;20546;-77
2023/06/09 08:57:18;;;;;;;14.40;5.07;;;22.10;99.90;;;;;;5030664;28;20276;-78
2023/06/09 08:59:46;;;;;;;11.57;4.95;;;22.10;99.90;;;;;;5045913;28;20048;-77
2023/06/09 09:02:12;;;;;;;9.68;4.68;;;22.20;99.90;;;;;;5029013;28;20106;-78
2023/06/09 09:04:38;;;;;;;9.52;4.82;;;22.20;99.90;;;;;;5046890;28;20463;-79
2023/06/09 09:07:06;;;;;;;9.80;4.35;;;22.30;99.90;;;;;;5046757;28;20091;-78
2023/06/09 09:09:31;;;;;;;9.73;4.70;;;22.40;99.90;;;;;;5025193;28;20033;-79
2023/06/09 09:11:58;;;;;;;8.95;4.50;;;22.50;99.90;;;;;;5047037;28;20033;-77
2023/06/09 09:14:24;;;;;;;8.60;3.95;;;22.50;99.90;;;;;;5030425;28;20542;-78
2023/06/09 09:16:49;;;;;;;10.35;4.40;;;22.60;99.90;;;;;;5047184;28;20064;-78
2023/06/09 09:19:26;;;;;;;8.85;4.88;;;22.70;99.90;;;;;;5030642;28;20042;-78
2023/06/09 09:21:55;;;;;;;8.68;3.92;;;22.70;99.90;;;;;;5046663;28;20524;-78
2023/06/09 09:24:20;;;;;;;9.52;4.25;;;22.80;99.90;;;;;;5029397;28;20033;-77
2023/06/09 09:26:46;;;;;;;9.25;3.92;;;22.90;99.90;;;;;;5046581;28;20041;-77
2023/06/09 09:29:11;;;;;;;12.13;4.55;;;23.00;99.90;;;;;;5046625;28;20041;-77
2023/06/09 09:31:41;;;;;;;12.55;4.38;;;23.10;99.90;;;;;;5045911;28;20040;-77
2023/06/09 09:34:14;;;;;;;10.43;3.95;;;23.10;99.90;;;;;;5030120;28;20400;-77
2023/06/09 09:36:46;;;;;;;7.93;4.20;;;23.30;99.90;;;;;;5039603;28;20052;-77
2023/06/09 09:39:11;;;;;;;9.43;4.30;;;23.40;99.90;;;;;;5046617;28;20275;-77
2023/06/09 09:41:37;;;;;;;10.88;4.53;;;23.40;99.90;;;;;;5029166;28;20064;-76
2023/06/09 09:44:03;;;;;;;9.13;4.20;;;23.50;99.90;;;;;;5028659;28;20038;-77
2023/06/09 09:46:36;;;;;;;7.97;3.83;;;23.60;99.90;;;;;;5029833;28;20041;-76
2023/06/09 09:49:02;;;;;;;;;;;23.60;99.90;;;;;;5028632;28;20041;-77
2023/06/09 09:51:27;;;;;;;6.20;3.63;;;23.70;99.90;;;;;;5029201;28;19924;-77
2023/06/09 09:53:58;;;;;;;8.45;4.50;;;23.80;99.90;;;;;;5029766;28;20124;-77
2023/06/09 09:56:25;;;;;;;7.72;4.30;;;23.90;99.90;;;;;;5029530;28;20073;-77
2023/06/09 09:58:52;;;;;;;11.48;4.43;;;23.90;99.90;;;;;;5045867;28;20345;-76
2023/06/09 10:01:22;;;;;;;10.05;4.63;;;24.00;99.90;;;;;;5029235;28;20049;-77
2023/06/09 10:03:48;;;;;;;8.90;4.45;;;24.10;99.90;;;;;;5029769;28;20044;-74
2023/06/09 10:06:18;;;;;;;14.45;4.43;;;24.20;99.90;;;;;;5020756;28;20049;-78
2023/06/09 10:08:45;;;;;;;9.00;3.80;;;24.20;99.90;;;;;;5029529;28;20037;-76
2023/06/09 10:11:12;;;;;;;10.25;4.53;;;24.20;99.90;;;;;;5045856;28;20041;-76
2023/06/09 10:13:38;;;;;;;16.75;4.63;;;24.30;99.90;;;;;;5029485;28;20635;-76
2023/06/09 10:16:05;;;;;;;8.25;4.78;;;24.40;99.90;;;;;;5033697;28;20047;-77
2023/06/09 10:18:32;;;;;;;10.27;4.63;;;24.50;99.90;;;;;;5049930;28;20120;-76
2023/06/09 10:20:58;;;;;;;9.88;4.45;;;24.50;99.90;;;;;;5032299;28;20087;-77
2023/06/09 10:23:25;;;;;;;11.35;4.53;;;24.60;99.90;;;;;;5032946;28;20041;-77
2023/06/09 10:25:51;;;;;;;13.77;4.53;;;24.80;99.90;;;;;;5049280;28;20038;-76
2023/06/09 10:28:18;;;;;;;9.30;4.63;;;24.90;99.90;;;;;;5049909;28;20033;-77
2023/06/09 10:30:45;;;;;;;11.05;4.95;;;25.00;99.90;;;;;;5031660;28;20037;-77
2023/06/09 10:33:25;;;;;;;9.32;4.47;;;25.10;99.90;;;;;;5032797;28;20029;-77
2023/06/09 10:35:56;;;;;;;7.97;4.20;;;25.10;99.90;;;;;;5033217;28;20125;-77
2023/06/09 10:38:28;;;;;;;10.27;4.30;;;25.20;99.90;;;;;;5031859;28;20041;-76
2023/06/09 10:41:15;;;;;;;8.07;4.15;;;25.30;99.90;;;;;;5027479;28;20041;-76
2023/06/09 10:43:53;;;;;;;8.85;4.55;;;25.40;99.90;;;;;;5026514;28;20048;-76
2023/06/09 10:46:38;;;;;;;8.40;4.47;;;25.60;99.90;;;;;;5033067;28;20045;-76
2023/06/09 10:49:03;;;;;;;9.32;4.60;;;25.70;99.90;;;;;;5042460;28;20121;-74
2023/06/09 10:51:29;;;;;;;9.98;4.97;;;25.80;99.90;;;;;;5029161;28;20396;-76
2023/06/09 10:54:07;;;;;;;8.50;5.13;;;25.90;99.90;;;;;;5033103;28;20075;-76
2023/06/09 10:56:40;;;;;;;9.32;4.13;;;26.00;99.90;;;;;;5015954;28;20049;-75
2023/06/09 10:59:05;;;;;;;10.40;4.60;;;26.00;99.90;;;;;;5024691;28;20046;-75
2023/06/09 11:01:32;;;;;;;9.55;4.55;;;26.10;99.90;;;;;;5032686;28;20033;-75
2023/06/09 11:03:58;;;;;;;8.65;4.35;;;26.20;99.90;;;;;;5049487;28;20098;-73
2023/06/09 11:06:23;;;;;;;9.68;4.80;;;26.30;99.90;;;;;;5049398;28;20041;-76
2023/06/09 11:09:08;;;;;;;11.20;4.43;;;26.30;99.90;;;;;;5032812;28;20029;-77
2023/06/09 11:12:00;;;;;;;11.00;5.00;;;26.50;99.90;;;;;;5024488;28;20029;-75
2023/06/09 11:14:47;;;;;;;10.48;4.55;;;26.50;99.90;;;;;;5014860;28;20046;-75
2023/06/09 11:17:26;;;;;;;8.30;4.47;;;26.80;99.90;;;;;;5023492;28;20053;-75
2023/06/09 11:19:52;;;;;;;9.27;4.18;;;26.90;99.90;;;;;;5027318;28;20489;-76
2023/06/09 11:22:18;;;;;;;7.93;4.50;;;27.10;99.90;;;;;;5032361;28;20612;-77
2023/06/09 11:24:51;;;;;;;7.93;4.65;;;27.30;99.90;;;;;;5032789;28;20040;-76
2023/06/09 11:27:17;;;;;;;;;;;27.40;99.90;;;;;;5031919;28;20539;-76
2023/06/09 11:29:44;;;;;;;7.22;4.18;;;27.50;99.90;;;;;;5033802;28;19921;-75
2023/06/09 11:32:10;;;;;;;7.53;4.00;;;27.70;99.90;;;;;;5031955;28;20049;-75
2023/06/09 11:34:55;;;;;;;6.90;4.57;;;27.70;99.90;;;;;;5048835;28;20033;-75
2023/06/09 11:37:21;;;;;;;6.25;3.92;;;27.80;99.90;;;;;;5049218;28;20072;-73
2023/06/09 11:39:47;;;;;;;6.53;3.90;;;28.00;99.90;;;;;;5032109;28;20129;-74
2023/06/09 11:42:14;;;;;;;6.03;4.00;;;28.10;99.90;;;;;;5048432;28;20038;-75
2023/06/09 11:44:40;;;;;;;7.03;4.05;;;28.30;99.90;;;;;;5048845;28;20048;-75
2023/06/09 11:47:25;;;;;;;6.15;3.65;;;28.40;99.90;;;;;;5048251;28;20044;-73
2023/06/09 11:50:09;;;;;;;9.85;3.75;;;28.50;99.90;;;;;;5031934;28;20033;-75
2023/06/09 11:52:34;;;;;;;8.13;3.97;;;28.70;99.90;;;;;;5023956;28;20069;-76
2023/06/09 11:55:03;;;;;;;6.60;4.10;;;28.90;99.90;;;;;;5048424;28;20095;-74
2023/06/09 11:57:31;;;;;;;7.28;3.95;;;28.90;99.10;;;;;;5031750;28;20044;-73
2023/06/09 11:59:56;;;;;;;5.60;3.70;;;29.00;99.00;;;;;;5032099;28;20397;-75
2023/06/09 12:02:22;;;;;;;7.72;3.97;;;29.10;98.30;;;;;;5048307;28;20096;-75
2023/06/09 12:04:49;;;;;;;5.78;3.70;;;29.10;98.00;;;;;;5033262;28;20064;-76
2023/06/09 12:07:17;;;;;;;8.95;3.80;;;29.30;98.20;;;;;;5031612;28;20046;-76
2023/06/09 12:09:43;;;;;;;7.35;3.72;;;29.50;98.10;;;;;;5031625;28;20544;-75
2023/06/09 12:12:09;;;;;;;5.97;3.78;;;29.60;97.70;;;;;;5031231;28;20037;-75
2023/06/09 12:14:36;;;;;;;6.80;3.65;;;29.60;96.80;;;;;;5031428;28;20044;-75
2023/06/09 12:17:02;;;;;;;7.15;4.07;;;29.70;96.60;;;;;;5031486;28;20060;-75
2023/06/09 12:19:29;;;;;;;7.40;4.00;;;29.70;95.90;;;;;;5031326;28;20485;-73
2023/06/09 12:21:55;;;;;;;6.80;4.10;;;29.80;96.10;;;;;;5031068;28;20509;-76
2023/06/09 12:24:21;;;;;;;5.38;3.40;;;29.90;96.10;;;;;;5047871;28;20116;-76
2023/06/09 12:26:49;;;;;;;7.28;3.97;;;29.90;96.00;;;;;;5031178;28;20519;-77
2023/06/09 12:29:15;;;;;;;7.65;3.70;;;30.10;96.00;;;;;;5031224;28;20119;-75
2023/06/09 12:31:45;;;;;;;6.93;3.65;;;30.20;95.80;;;;;;5047521;28;20100;-78
2023/06/09 12:34:25;;;;;;;9.68;4.25;;;30.30;95.40;;;;;;5047842;28;20041;-78
2023/06/09 12:36:51;;;;;;;7.25;3.63;;;30.40;95.50;;;;;;5025474;28;20081;-76
2023/06/09 12:39:21;;;;;;;5.55;3.67;;;30.40;94.80;;;;;;5046717;28;20445;-76
2023/06/09 12:41:47;;;;;;;5.63;3.65;;;30.50;94.80;;;;;;5030786;28;20068;-76